sensor_id;sensor_type;location;lat;lon;timestamp;pressure;altitude;pressure_sealevel;temperature
69186;BMP280;56298;49.246;9.410;2022-08-11T00:02:12;99954.44;;;19.10
69186;BMP280;56298;49.246;9.410;2022-08-11T00:04:38;99953.28;;;19.08
69186;BMP280;56298;49.246;9.410;2022-08-11T00:07:04;99952.53;;;18.96
69186;BMP280;56298;49.246;9.410;2022-08-11T00:09:34;99950.53;;;18.93
69186;BMP280;56298;49.246;9.410;2022-08-11T00:12:00;99954.56;;;18.81
69186;BMP280;56298;49.246;9.410;2022-08-11T00:14:28;99947.41;;;18.87
69186;BMP280;56298;49.246;9.410;2022-08-11T00:17:04;99951.00;;;18.81
69186;BMP280;56298;49.246;9.410;2022-08-11T00:19:40;99954.19;;;18.76
69186;BMP280;56298;49.246;9.410;2022-08-11T00:22:07;99944.63;;;18.69
69186;BMP280;56298;49.246;9.410;2022-08-11T00:24:36;99953.38;;;18.71
69186;BMP280;56298;49.246;9.410;2022-08-11T00:27:02;99959.72;;;18.54
69186;BMP280;56298;49.246;9.410;2022-08-11T00:29:28;99960.94;;;18.56
69186;BMP280;56298;49.246;9.410;2022-08-11T00:31:56;99957.34;;;18.49
69186;BMP280;56298;49.246;9.410;2022-08-11T00:34:33;99957.34;;;18.49
69186;BMP280;56298;49.246;9.410;2022-08-11T00:37:08;99969.25;;;18.31
69186;BMP280;56298;49.246;9.410;2022-08-11T00:39:41;99969.25;;;18.31
69186;BMP280;56298;49.246;9.410;2022-08-11T00:42:29;99964.47;;;18.24
69186;BMP280;56298;49.246;9.410;2022-08-11T00:45:09;99961.69;;;18.24
69186;BMP280;56298;49.246;9.410;2022-08-11T00:48:21;99968.06;;;18.25
69186;BMP280;56298;49.246;9.410;2022-08-11T00:50:50;99972.81;;;18.21
69186;BMP280;56298;49.246;9.410;2022-08-11T00:54:18;99962.91;;;18.27
69186;BMP280;56298;49.246;9.410;2022-08-11T00:59:23;99964.91;;;18.30
69186;BMP280;56298;49.246;9.410;2022-08-11T01:01:58;99968.47;;;18.34
69186;BMP280;56298;49.246;9.410;2022-08-11T01:16:50;99958.50;;;18.00
69186;BMP280;56298;49.246;9.410;2022-08-11T01:22:46;99959.31;;;18.01
69186;BMP280;56298;49.246;9.410;2022-08-11T01:31:03;99954.88;;;17.75
69186;BMP280;56298;49.246;9.410;2022-08-11T01:34:02;99954.88;;;17.75
69186;BMP280;56298;49.246;9.410;2022-08-11T01:51:21;99964.59;;;17.32
69186;BMP280;56298;49.246;9.410;2022-08-11T01:59:48;99963.78;;;17.21
69186;BMP280;56298;49.246;9.410;2022-08-11T02:08:45;99963.66;;;17.03
69186;BMP280;56298;49.246;9.410;2022-08-11T02:11:29;99958.06;;;16.95
69186;BMP280;56298;49.246;9.410;2022-08-11T02:17:00;99955.59;;;16.83
69186;BMP280;56298;49.246;9.410;2022-08-11T02:22:29;99963.09;;;16.79
69186;BMP280;56298;49.246;9.410;2022-08-11T02:25:33;99949.66;;;16.81
69186;BMP280;56298;49.246;9.410;2022-08-11T02:28:12;99955.56;;;16.76
69186;BMP280;56298;49.246;9.410;2022-08-11T02:31:02;99956.00;;;16.81
69186;BMP280;56298;49.246;9.410;2022-08-11T02:33:57;99944.47;;;16.76
69186;BMP280;56298;49.246;9.410;2022-08-11T02:36:37;99950.88;;;16.83
69186;BMP280;56298;49.246;9.410;2022-08-11T02:39:10;99942.88;;;16.75
69186;BMP280;56298;49.246;9.410;2022-08-11T02:41:58;99943.28;;;16.77
69186;BMP280;56298;49.246;9.410;2022-08-11T02:57:14;99938.38;;;16.55
69186;BMP280;56298;49.246;9.410;2022-08-11T03:02:23;99938.75;;;16.54
69186;BMP280;56298;49.246;9.410;2022-08-11T03:07:33;99936.72;;;16.47
69186;BMP280;56298;49.246;9.410;2022-08-11T03:10:09;99939.47;;;16.44
69186;BMP280;56298;49.246;9.410;2022-08-11T03:12:52;99943.00;;;16.40
69186;BMP280;56298;49.246;9.410;2022-08-11T03:21:48;99947.63;;;16.25
69186;BMP280;56298;49.246;9.410;2022-08-11T03:24:32;99948.34;;;16.19
69186;BMP280;56298;49.246;9.410;2022-08-11T03:27:08;99951.41;;;16.10
69186;BMP280;56298;49.246;9.410;2022-08-11T03:29:49;99945.56;;;16.19
69186;BMP280;56298;49.246;9.410;2022-08-11T03:32:29;99951.88;;;16.16
69186;BMP280;56298;49.246;9.410;2022-08-11T03:34:58;99946.69;;;16.10
69186;BMP280;56298;49.246;9.410;2022-08-11T03:43:23;99960.75;;;15.94
69186;BMP280;56298;49.246;9.410;2022-08-11T03:46:09;99960.66;;;15.87
69186;BMP280;56298;49.246;9.410;2022-08-11T03:54:47;99957.31;;;15.71
69186;BMP280;56298;49.246;9.410;2022-08-11T04:00:17;99954.03;;;15.95
69186;BMP280;56298;49.246;9.410;2022-08-11T04:06:02;99959.16;;;15.97
69186;BMP280;56298;49.246;9.410;2022-08-11T04:09:17;99967.88;;;15.95
69186;BMP280;56298;49.246;9.410;2022-08-11T04:14:59;99964.44;;;16.06
69186;BMP280;56298;49.246;9.410;2022-08-11T04:23:49;99965.53;;;15.97
69186;BMP280;56298;49.246;9.410;2022-08-11T04:26:55;99962.75;;;15.97
69186;BMP280;56298;49.246;9.410;2022-08-11T04:30:27;99964.81;;;16.08
69186;BMP280;56298;49.246;9.410;2022-08-11T04:41:19;99966.63;;;16.27
69186;BMP280;56298;49.246;9.410;2022-08-11T04:46:58;99965.97;;;16.45
69186;BMP280;56298;49.246;9.410;2022-08-11T04:49:39;99966.91;;;16.56
69186;BMP280;56298;49.246;9.410;2022-08-11T04:53:04;99962.25;;;16.71
69186;BMP280;56298;49.246;9.410;2022-08-11T04:59:07;99969.63;;;17.08
69186;BMP280;56298;49.246;9.410;2022-08-11T05:11:06;99969.88;;;17.55
69186;BMP280;56298;49.246;9.410;2022-08-11T05:13:36;99975.03;;;17.64
69186;BMP280;56298;49.246;9.410;2022-08-11T05:16:32;99970.28;;;17.68
69186;BMP280;56298;49.246;9.410;2022-08-11T05:19:20;99963.19;;;17.78
69186;BMP280;56298;49.246;9.410;2022-08-11T05:22:09;99968.00;;;17.92
69186;BMP280;56298;49.246;9.410;2022-08-11T05:25:05;99973.19;;;18.19
69186;BMP280;56298;49.246;9.410;2022-08-11T05:28:02;99973.25;;;18.41
69186;BMP280;56298;49.246;9.410;2022-08-11T05:30:47;99981.91;;;18.86
69186;BMP280;56298;49.246;9.410;2022-08-11T05:33:46;99975.41;;;19.44
69186;BMP280;56298;49.246;9.410;2022-08-11T05:36:48;99975.00;;;20.13
69186;BMP280;56298;49.246;9.410;2022-08-11T05:39:19;99978.63;;;20.59
69186;BMP280;56298;49.246;9.410;2022-08-11T05:42:05;99984.69;;;21.23
69186;BMP280;56298;49.246;9.410;2022-08-11T05:44:50;99984.19;;;21.63
69186;BMP280;56298;49.246;9.410;2022-08-11T05:47:36;99986.38;;;22.06
69186;BMP280;56298;49.246;9.410;2022-08-11T05:50:21;99977.75;;;22.41
69186;BMP280;56298;49.246;9.410;2022-08-11T05:53:09;99974.09;;;22.88
69186;BMP280;56298;49.246;9.410;2022-08-11T05:55:53;99972.34;;;22.98
69186;BMP280;56298;49.246;9.410;2022-08-11T05:58:39;99964.94;;;23.61
69186;BMP280;56298;49.246;9.410;2022-08-11T06:01:05;99973.31;;;23.98
69186;BMP280;56298;49.246;9.410;2022-08-11T06:03:33;99973.00;;;24.25
69186;BMP280;56298;49.246;9.410;2022-08-11T06:06:23;99973.13;;;24.80
69186;BMP280;56298;49.246;9.410;2022-08-11T06:08:49;99976.69;;;25.75
69186;BMP280;56298;49.246;9.410;2022-08-11T06:11:19;99979.63;;;26.86
69186;BMP280;56298;49.246;9.410;2022-08-11T06:13:45;99966.13;;;27.62
69186;BMP280;56298;49.246;9.410;2022-08-11T06:16:12;99969.63;;;28.13
69186;BMP280;56298;49.246;9.410;2022-08-11T06:18:44;99962.09;;;28.99
69186;BMP280;56298;49.246;9.410;2022-08-11T06:21:10;99968.97;;;29.08
69186;BMP280;56298;49.246;9.410;2022-08-11T06:23:36;99962.06;;;29.42
69186;BMP280;56298;49.246;9.410;2022-08-11T06:26:10;99972.63;;;29.96
69186;BMP280;56298;49.246;9.410;2022-08-11T06:28:38;99965.47;;;30.40
69186;BMP280;56298;49.246;9.410;2022-08-11T06:31:16;99963.09;;;30.83
69186;BMP280;56298;49.246;9.410;2022-08-11T06:36:39;99972.53;;;30.44
69186;BMP280;56298;49.246;9.410;2022-08-11T06:39:27;99968.56;;;31.22
69186;BMP280;56298;49.246;9.410;2022-08-11T06:42:02;99972.31;;;30.18
69186;BMP280;56298;49.246;9.410;2022-08-11T06:44:40;99970.16;;;30.73
69186;BMP280;56298;49.246;9.410;2022-08-11T06:47:11;99967.50;;;30.54
69186;BMP280;56298;49.246;9.410;2022-08-11T06:49:43;99963.53;;;31.12
69186;BMP280;56298;49.246;9.410;2022-08-11T06:52:32;99972.66;;;31.21
69186;BMP280;56298;49.246;9.410;2022-08-11T06:55:04;99969.38;;;32.11
69186;BMP280;56298;49.246;9.410;2022-08-11T06:57:32;99970.66;;;32.74
69186;BMP280;56298;49.246;9.410;2022-08-11T07:00:17;99971.25;;;32.90
69186;BMP280;56298;49.246;9.410;2022-08-11T07:03:12;99969.84;;;33.83
69186;BMP280;56298;49.246;9.410;2022-08-11T07:05:47;99972.72;;;34.68
69186;BMP280;56298;49.246;9.410;2022-08-11T07:11:47;99969.56;;;34.77
69186;BMP280;56298;49.246;9.410;2022-08-11T07:14:34;99965.16;;;35.88
69186;BMP280;56298;49.246;9.410;2022-08-11T07:17:21;99962.75;;;35.56
69186;BMP280;56298;49.246;9.410;2022-08-11T07:19:56;99965.38;;;35.96
69186;BMP280;56298;49.246;9.410;2022-08-11T07:22:42;99961.44;;;35.99
69186;BMP280;56298;49.246;9.410;2022-08-11T07:25:30;99955.41;;;35.72
69186;BMP280;56298;49.246;9.410;2022-08-11T07:28:27;99951.34;;;35.56
69186;BMP280;56298;49.246;9.410;2022-08-11T07:31:42;99960.81;;;35.28
69186;BMP280;56298;49.246;9.410;2022-08-11T07:34:20;99952.53;;;35.31
69186;BMP280;56298;49.246;9.410;2022-08-11T07:36:53;99947.50;;;35.90
69186;BMP280;56298;49.246;9.410;2022-08-11T07:39:21;99947.06;;;35.74
69186;BMP280;56298;49.246;9.410;2022-08-11T07:41:49;99952.59;;;35.97
69186;BMP280;56298;49.246;9.410;2022-08-11T07:44:16;99947.81;;;35.39
69186;BMP280;56298;49.246;9.410;2022-08-11T07:46:44;99944.50;;;35.23
69186;BMP280;56298;49.246;9.410;2022-08-11T07:49:31;99950.84;;;34.99
69186;BMP280;56298;49.246;9.410;2022-08-11T07:52:15;99940.38;;;34.37
69186;BMP280;56298;49.246;9.410;2022-08-11T07:55:13;99933.38;;;33.98
69186;BMP280;56298;49.246;9.410;2022-08-11T07:57:39;99945.97;;;33.58
69186;BMP280;56298;49.246;9.410;2022-08-11T08:00:26;99943.31;;;32.45
69186;BMP280;56298;49.246;9.410;2022-08-11T08:03:10;99936.75;;;32.27
69186;BMP280;56298;49.246;9.410;2022-08-11T08:05:55;99941.41;;;31.78
69186;BMP280;56298;49.246;9.410;2022-08-11T08:08:40;99939.72;;;32.44
69186;BMP280;56298;49.246;9.410;2022-08-11T08:11:25;99938.19;;;32.86
69186;BMP280;56298;49.246;9.410;2022-08-11T08:14:10;99936.66;;;32.48
69186;BMP280;56298;49.246;9.410;2022-08-11T08:16:55;99936.03;;;33.25
69186;BMP280;56298;49.246;9.410;2022-08-11T08:19:42;99941.69;;;33.19
69186;BMP280;56298;49.246;9.410;2022-08-11T08:22:10;99936.03;;;32.76
69186;BMP280;56298;49.246;9.410;2022-08-11T08:24:37;99928.38;;;33.48
69186;BMP280;56298;49.246;9.410;2022-08-11T08:27:03;99923.63;;;32.73
69186;BMP280;56298;49.246;9.410;2022-08-11T08:29:33;99922.13;;;33.38
69186;BMP280;56298;49.246;9.410;2022-08-11T08:32:19;99924.34;;;33.00
69186;BMP280;56298;49.246;9.410;2022-08-11T08:34:50;99931.06;;;33.03
69186;BMP280;56298;49.246;9.410;2022-08-11T08:37:21;99918.38;;;33.04
69186;BMP280;56298;49.246;9.410;2022-08-11T08:39:48;99922.28;;;32.63
69186;BMP280;56298;49.246;9.410;2022-08-11T08:42:20;99919.41;;;32.25
69186;BMP280;56298;49.246;9.410;2022-08-11T08:44:50;99940.22;;;31.22
69186;BMP280;56298;49.246;9.410;2022-08-11T08:47:17;99936.91;;;30.88
69186;BMP280;56298;49.246;9.410;2022-08-11T08:49:59;99925.22;;;30.81
69186;BMP280;56298;49.246;9.410;2022-08-11T08:52:28;99926.31;;;31.24
69186;BMP280;56298;49.246;9.410;2022-08-11T08:54:57;99928.59;;;31.20
69186;BMP280;56298;49.246;9.410;2022-08-11T08:57:27;99925.97;;;31.37
69186;BMP280;56298;49.246;9.410;2022-08-11T08:59:53;99926.84;;;31.44
69186;BMP280;56298;49.246;9.410;2022-08-11T09:02:23;99936.34;;;31.40
69186;BMP280;56298;49.246;9.410;2022-08-11T09:04:49;99920.09;;;31.20
69186;BMP280;56298;49.246;9.410;2022-08-11T09:07:16;99930.50;;;31.08
69186;BMP280;56298;49.246;9.410;2022-08-11T09:09:50;99954.19;;;31.26
69186;BMP280;56298;49.246;9.410;2022-08-11T09:12:20;99925.03;;;31.05
69186;BMP280;56298;49.246;9.410;2022-08-11T09:14:49;99932.72;;;30.84
69186;BMP280;56298;49.246;9.410;2022-08-11T09:17:46;99931.34;;;30.94
69186;BMP280;56298;49.246;9.410;2022-08-11T09:20:18;99930.06;;;30.95
69186;BMP280;56298;49.246;9.410;2022-08-11T09:22:45;99929.44;;;30.70
69186;BMP280;56298;49.246;9.410;2022-08-11T09:25:32;99927.34;;;30.35
69186;BMP280;56298;49.246;9.410;2022-08-11T09:28:17;99930.16;;;30.20
69186;BMP280;56298;49.246;9.410;2022-08-11T09:30:46;99938.72;;;30.11
69186;BMP280;56298;49.246;9.410;2022-08-11T09:33:15;99923.69;;;30.20
69186;BMP280;56298;49.246;9.410;2022-08-11T09:35:41;99929.22;;;30.74
69186;BMP280;56298;49.246;9.410;2022-08-11T09:38:12;99927.66;;;31.08
69186;BMP280;56298;49.246;9.410;2022-08-11T09:40:57;99930.53;;;31.29
69186;BMP280;56298;49.246;9.410;2022-08-11T09:43:24;99929.03;;;31.13
69186;BMP280;56298;49.246;9.410;2022-08-11T09:46:08;99920.47;;;30.92
69186;BMP280;56298;49.246;9.410;2022-08-11T09:48:37;99919.84;;;30.83
69186;BMP280;56298;49.246;9.410;2022-08-11T09:51:03;99928.41;;;30.88
69186;BMP280;56298;49.246;9.410;2022-08-11T09:53:31;99919.16;;;31.08
69186;BMP280;56298;49.246;9.410;2022-08-11T09:55:57;99918.97;;;31.12
69186;BMP280;56298;49.246;9.410;2022-08-11T09:58:24;99899.41;;;31.35
69186;BMP280;56298;49.246;9.410;2022-08-11T10:00:55;99917.81;;;31.24
69186;BMP280;56298;49.246;9.410;2022-08-11T10:03:23;99898.69;;;31.40
69186;BMP280;56298;49.246;9.410;2022-08-11T10:05:59;99887.28;;;31.55
69186;BMP280;56298;49.246;9.410;2022-08-11T10:08:45;99887.50;;;31.51
69186;BMP280;56298;49.246;9.410;2022-08-11T10:11:13;99890.03;;;31.49
69186;BMP280;56298;49.246;9.410;2022-08-11T10:13:43;99896.19;;;31.68
69186;BMP280;56298;49.246;9.410;2022-08-11T10:16:29;99885.06;;;31.65
69186;BMP280;56298;49.246;9.410;2022-08-11T10:18:57;99881.56;;;31.29
69186;BMP280;56298;49.246;9.410;2022-08-11T10:21:39;99888.16;;;31.20
69186;BMP280;56298;49.246;9.410;2022-08-11T10:24:06;99873.59;;;31.80
69186;BMP280;56298;49.246;9.410;2022-08-11T10:26:52;99869.03;;;31.62
69186;BMP280;56298;49.246;9.410;2022-08-11T10:32:08;99873.78;;;31.23
69186;BMP280;56298;49.246;9.410;2022-08-11T10:34:53;99871.44;;;31.69
69186;BMP280;56298;49.246;9.410;2022-08-11T10:37:20;99865.38;;;31.82
69186;BMP280;56298;49.246;9.410;2022-08-11T10:39:47;99866.34;;;32.05
69186;BMP280;56298;49.246;9.410;2022-08-11T10:42:13;99860.56;;;31.94
69186;BMP280;56298;49.246;9.410;2022-08-11T10:44:59;99852.38;;;32.01
69186;BMP280;56298;49.246;9.410;2022-08-11T10:47:26;99842.66;;;31.82
69186;BMP280;56298;49.246;9.410;2022-08-11T10:50:03;99857.91;;;31.84
69186;BMP280;56298;49.246;9.410;2022-08-11T10:52:50;99842.19;;;31.83
69186;BMP280;56298;49.246;9.410;2022-08-11T10:55:35;99839.91;;;31.87
69186;BMP280;56298;49.246;9.410;2022-08-11T10:58:20;99826.59;;;32.05
69186;BMP280;56298;49.246;9.410;2022-08-11T11:01:05;99851.09;;;32.02
69186;BMP280;56298;49.246;9.410;2022-08-11T11:03:32;99840.41;;;32.18
69186;BMP280;56298;49.246;9.410;2022-08-11T11:06:25;99838.56;;;32.15
69186;BMP280;56298;49.246;9.410;2022-08-11T11:09:06;99832.28;;;32.43
69186;BMP280;56298;49.246;9.410;2022-08-11T11:11:40;99832.91;;;32.52
69186;BMP280;56298;49.246;9.410;2022-08-11T11:14:30;99826.13;;;32.44
69186;BMP280;56298;49.246;9.410;2022-08-11T11:17:19;99824.81;;;32.94
69186;BMP280;56298;49.246;9.410;2022-08-11T11:20:05;99809.09;;;32.44
69186;BMP280;56298;49.246;9.410;2022-08-11T11:22:31;99820.25;;;32.16
69186;BMP280;56298;49.246;9.410;2022-08-11T11:25:09;99833.84;;;32.44
69186;BMP280;56298;49.246;9.410;2022-08-11T11:28:01;99821.03;;;32.60
69186;BMP280;56298;49.246;9.410;2022-08-11T11:30:37;99828.97;;;32.50
69186;BMP280;56298;49.246;9.410;2022-08-11T11:38:19;99812.72;;;32.50
69186;BMP280;56298;49.246;9.410;2022-08-11T11:40:46;99809.84;;;32.39
69186;BMP280;56298;49.246;9.410;2022-08-11T11:43:32;99795.00;;;32.24
69186;BMP280;56298;49.246;9.410;2022-08-11T11:45:59;99803.13;;;32.42
69186;BMP280;56298;49.246;9.410;2022-08-11T11:48:25;99803.81;;;32.26
69186;BMP280;56298;49.246;9.410;2022-08-11T11:50:54;99802.97;;;32.19
69186;BMP280;56298;49.246;9.410;2022-08-11T11:53:20;99797.59;;;32.21
69186;BMP280;56298;49.246;9.410;2022-08-11T11:55:45;99795.59;;;32.33
69186;BMP280;56298;49.246;9.410;2022-08-11T11:58:11;99784.81;;;32.43
69186;BMP280;56298;49.246;9.410;2022-08-11T12:00:56;99779.13;;;32.43
69186;BMP280;56298;49.246;9.410;2022-08-11T12:03:42;99780.41;;;32.42
69186;BMP280;56298;49.246;9.410;2022-08-11T12:06:08;99790.44;;;32.37
69186;BMP280;56298;49.246;9.410;2022-08-11T12:08:36;99772.63;;;32.37
69186;BMP280;56298;49.246;9.410;2022-08-11T12:11:04;99766.16;;;32.31
69186;BMP280;56298;49.246;9.410;2022-08-11T12:13:51;99775.06;;;32.12
69186;BMP280;56298;49.246;9.410;2022-08-11T12:16:21;99783.03;;;31.76
69186;BMP280;56298;49.246;9.410;2022-08-11T12:18:49;99766.59;;;31.80
69186;BMP280;56298;49.246;9.410;2022-08-11T12:21:15;99777.00;;;31.95
69186;BMP280;56298;49.246;9.410;2022-08-11T12:23:42;99775.91;;;31.86
69186;BMP280;56298;49.246;9.410;2022-08-11T12:26:27;99773.78;;;31.81
69186;BMP280;56298;49.246;9.410;2022-08-11T12:29:11;99762.25;;;31.90
69186;BMP280;56298;49.246;9.410;2022-08-11T12:31:38;99759.72;;;31.93
69186;BMP280;56298;49.246;9.410;2022-08-11T12:34:05;99769.38;;;31.74
69186;BMP280;56298;49.246;9.410;2022-08-11T12:36:40;99757.03;;;31.78
69186;BMP280;56298;49.246;9.410;2022-08-11T12:39:09;99745.72;;;31.83
69186;BMP280;56298;49.246;9.410;2022-08-11T12:41:36;99743.25;;;32.02
69186;BMP280;56298;49.246;9.410;2022-08-11T12:44:24;99749.97;;;31.99
69186;BMP280;56298;49.246;9.410;2022-08-11T12:47:09;99747.19;;;32.11
69186;BMP280;56298;49.246;9.410;2022-08-11T12:49:37;99748.75;;;32.12
69186;BMP280;56298;49.246;9.410;2022-08-11T12:52:26;99744.00;;;32.41
69186;BMP280;56298;49.246;9.410;2022-08-11T12:55:05;99744.03;;;32.46
69186;BMP280;56298;49.246;9.410;2022-08-11T12:57:38;99727.09;;;32.69
69186;BMP280;56298;49.246;9.410;2022-08-11T13:00:26;99734.34;;;32.81
69186;BMP280;56298;49.246;9.410;2022-08-11T13:03:12;99732.19;;;32.48
69186;BMP280;56298;49.246;9.410;2022-08-11T13:05:59;99725.56;;;32.74
69186;BMP280;56298;49.246;9.410;2022-08-11T13:08:27;99726.84;;;32.67
69186;BMP280;56298;49.246;9.410;2022-08-11T13:10:54;99716.50;;;32.69
69186;BMP280;56298;49.246;9.410;2022-08-11T13:13:40;99732.78;;;32.75
69186;BMP280;56298;49.246;9.410;2022-08-11T13:16:09;99724.44;;;32.48
69186;BMP280;56298;49.246;9.410;2022-08-11T13:18:38;99710.00;;;32.58
69186;BMP280;56298;49.246;9.410;2022-08-11T13:21:08;99716.66;;;32.49
69186;BMP280;56298;49.246;9.410;2022-08-11T13:23:34;99714.66;;;32.55
69186;BMP280;56298;49.246;9.410;2022-08-11T13:26:02;99719.28;;;32.58
69186;BMP280;56298;49.246;9.410;2022-08-11T13:28:28;99717.22;;;32.53
69186;BMP280;56298;49.246;9.410;2022-08-11T13:30:53;99707.38;;;32.54
69186;BMP280;56298;49.246;9.410;2022-08-11T13:33:41;99706.16;;;32.66
69186;BMP280;56298;49.246;9.410;2022-08-11T13:36:07;99695.25;;;32.53
69186;BMP280;56298;49.246;9.410;2022-08-11T13:38:34;99692.19;;;32.57
69186;BMP280;56298;49.246;9.410;2022-08-11T13:41:00;99683.09;;;32.47
69186;BMP280;56298;49.246;9.410;2022-08-11T13:43:26;99693.44;;;32.45
69186;BMP280;56298;49.246;9.410;2022-08-11T13:45:53;99681.25;;;32.33
69186;BMP280;56298;49.246;9.410;2022-08-11T13:48:39;99682.03;;;32.33
69186;BMP280;56298;49.246;9.410;2022-08-11T13:51:07;99681.16;;;32.16
69186;BMP280;56298;49.246;9.410;2022-08-11T13:53:51;99687.34;;;32.09
69186;BMP280;56298;49.246;9.410;2022-08-11T13:56:17;99689.53;;;31.87
69186;BMP280;56298;49.246;9.410;2022-08-11T13:58:43;99688.25;;;31.88
69186;BMP280;56298;49.246;9.410;2022-08-11T14:01:09;99682.47;;;31.77
69186;BMP280;56298;49.246;9.410;2022-08-11T14:03:34;99686.25;;;31.63
69186;BMP280;56298;49.246;9.410;2022-08-11T14:06:01;99681.94;;;31.73
69186;BMP280;56298;49.246;9.410;2022-08-11T14:08:31;99674.31;;;31.90
69186;BMP280;56298;49.246;9.410;2022-08-11T14:11:01;99671.81;;;32.04
69186;BMP280;56298;49.246;9.410;2022-08-11T14:13:48;99669.84;;;31.78
69186;BMP280;56298;49.246;9.410;2022-08-11T14:16:39;99677.09;;;31.47
69186;BMP280;56298;49.246;9.410;2022-08-11T14:19:08;99671.75;;;31.55
69186;BMP280;56298;49.246;9.410;2022-08-11T14:21:37;99663.00;;;31.58
69186;BMP280;56298;49.246;9.410;2022-08-11T14:24:21;99661.00;;;31.65
69186;BMP280;56298;49.246;9.410;2022-08-11T14:26:48;99661.03;;;31.70
69186;BMP280;56298;49.246;9.410;2022-08-11T14:29:17;99653.97;;;31.92
69186;BMP280;56298;49.246;9.410;2022-08-11T14:31:48;99646.53;;;32.00
69186;BMP280;56298;49.246;9.410;2022-08-11T14:34:17;99655.91;;;31.74
69186;BMP280;56298;49.246;9.410;2022-08-11T14:36:48;99658.63;;;31.57
69186;BMP280;56298;49.246;9.410;2022-08-11T14:39:17;99639.31;;;31.24
69186;BMP280;56298;49.246;9.410;2022-08-11T14:41:45;99659.09;;;31.18
69186;BMP280;56298;49.246;9.410;2022-08-11T14:44:31;99644.47;;;30.99
69186;BMP280;56298;49.246;9.410;2022-08-11T14:47:16;99643.53;;;31.08
69186;BMP280;56298;49.246;9.410;2022-08-11T14:49:43;99640.25;;;31.15
69186;BMP280;56298;49.246;9.410;2022-08-11T14:52:10;99645.22;;;30.94
69186;BMP280;56298;49.246;9.410;2022-08-11T14:54:41;99645.88;;;31.09
69186;BMP280;56298;49.246;9.410;2022-08-11T14:57:25;99647.38;;;31.05
69186;BMP280;56298;49.246;9.410;2022-08-11T14:59:54;99636.91;;;31.17
69186;BMP280;56298;49.246;9.410;2022-08-11T15:02:21;99630.03;;;31.23
69186;BMP280;56298;49.246;9.410;2022-08-11T15:05:06;99625.31;;;31.15
69186;BMP280;56298;49.246;9.410;2022-08-11T15:07:32;99619.88;;;30.85
69186;BMP280;56298;49.246;9.410;2022-08-11T15:10:00;99627.94;;;30.66
69186;BMP280;56298;49.246;9.410;2022-08-11T15:12:27;99637.50;;;30.48
69186;BMP280;56298;49.246;9.410;2022-08-11T15:14:53;99626.78;;;30.37
69186;BMP280;56298;49.246;9.410;2022-08-11T15:17:39;99626.66;;;30.46
69186;BMP280;56298;49.246;9.410;2022-08-11T15:20:08;99616.69;;;30.51
69186;BMP280;56298;49.246;9.410;2022-08-11T15:22:52;99623.34;;;30.48
69186;BMP280;56298;49.246;9.410;2022-08-11T15:25:37;99618.69;;;30.44
69186;BMP280;56298;49.246;9.410;2022-08-11T15:28:05;99616.63;;;30.45
69186;BMP280;56298;49.246;9.410;2022-08-11T15:30:53;99617.50;;;30.30
69186;BMP280;56298;49.246;9.410;2022-08-11T15:33:39;99602.41;;;30.19
69186;BMP280;56298;49.246;9.410;2022-08-11T15:36:28;99611.13;;;30.15
69186;BMP280;56298;49.246;9.410;2022-08-11T15:39:18;99611.19;;;30.21
69186;BMP280;56298;49.246;9.410;2022-08-11T15:44:33;99603.88;;;30.35
69186;BMP280;56298;49.246;9.410;2022-08-11T15:47:27;99604.94;;;30.37
69186;BMP280;56298;49.246;9.410;2022-08-11T15:49:54;99600.78;;;30.33
69186;BMP280;56298;49.246;9.410;2022-08-11T15:52:29;99594.56;;;30.28
69186;BMP280;56298;49.246;9.410;2022-08-11T15:54:57;99589.25;;;30.15
69186;BMP280;56298;49.246;9.410;2022-08-11T15:57:28;99600.06;;;29.96
69186;BMP280;56298;49.246;9.410;2022-08-11T16:00:13;99599.34;;;30.02
69186;BMP280;56298;49.246;9.410;2022-08-11T16:02:58;99595.81;;;29.86
69186;BMP280;56298;49.246;9.410;2022-08-11T16:05:44;99594.97;;;29.80
69186;BMP280;56298;49.246;9.410;2022-08-11T16:08:11;99590.34;;;29.82
69186;BMP280;56298;49.246;9.410;2022-08-11T16:10:38;99592.03;;;29.74
69186;BMP280;56298;49.246;9.410;2022-08-11T16:13:05;99591.84;;;29.78
69186;BMP280;56298;49.246;9.410;2022-08-11T16:15:33;99585.97;;;29.81
69186;BMP280;56298;49.246;9.410;2022-08-11T16:18:21;99587.16;;;29.75
69186;BMP280;56298;49.246;9.410;2022-08-11T16:20:53;99573.94;;;29.66
69186;BMP280;56298;49.246;9.410;2022-08-11T16:23:21;99574.19;;;29.68
69186;BMP280;56298;49.246;9.410;2022-08-11T16:25:50;99583.47;;;29.68
69186;BMP280;56298;49.246;9.410;2022-08-11T16:28:18;99566.72;;;29.65
69186;BMP280;56298;49.246;9.410;2022-08-11T16:30:45;99579.16;;;29.52
69186;BMP280;56298;49.246;9.410;2022-08-11T16:33:11;99578.06;;;29.50
69186;BMP280;56298;49.246;9.410;2022-08-11T16:35:38;99572.41;;;29.50
69186;BMP280;56298;49.246;9.410;2022-08-11T16:38:24;99564.41;;;29.48
69186;BMP280;56298;49.246;9.410;2022-08-11T16:41:02;99564.28;;;29.37
69186;BMP280;56298;49.246;9.410;2022-08-11T16:43:29;99563.19;;;29.34
69186;BMP280;56298;49.246;9.410;2022-08-11T16:46:16;99555.91;;;29.28
69186;BMP280;56298;49.246;9.410;2022-08-11T16:49:03;99559.69;;;29.25
69186;BMP280;56298;49.246;9.410;2022-08-11T16:51:30;99557.78;;;29.16
69186;BMP280;56298;49.246;9.410;2022-08-11T16:53:56;99562.81;;;29.12
69186;BMP280;56298;49.246;9.410;2022-08-11T16:56:28;99570.41;;;29.05
69186;BMP280;56298;49.246;9.410;2022-08-11T16:58:55;99574.97;;;29.03
69186;BMP280;56298;49.246;9.410;2022-08-11T17:01:41;99565.44;;;29.00
69186;BMP280;56298;49.246;9.410;2022-08-11T17:04:38;99569.53;;;28.99
69186;BMP280;56298;49.246;9.410;2022-08-11T17:07:24;99565.66;;;28.97
69186;BMP280;56298;49.246;9.410;2022-08-11T17:13:03;99568.28;;;29.00
69186;BMP280;56298;49.246;9.410;2022-08-11T17:15:43;99561.16;;;29.05
69186;BMP280;56298;49.246;9.410;2022-08-11T17:18:29;99550.03;;;29.01
69186;BMP280;56298;49.246;9.410;2022-08-11T17:21:21;99557.38;;;28.93
69186;BMP280;56298;49.246;9.410;2022-08-11T17:23:52;99556.66;;;28.83
69186;BMP280;56298;49.246;9.410;2022-08-11T17:26:23;99559.13;;;28.76
69186;BMP280;56298;49.246;9.410;2022-08-11T17:28:53;99564.16;;;28.71
69186;BMP280;56298;49.246;9.410;2022-08-11T17:31:20;99552.34;;;28.58
69186;BMP280;56298;49.246;9.410;2022-08-11T17:34:06;99551.88;;;28.60
69186;BMP280;56298;49.246;9.410;2022-08-11T17:36:53;99557.13;;;28.52